EPSY

Szczytno-Szymany International Airport

Poland
TAF EPSY 251430Z 2515/2524 31010KT CAVOK TEMPO 2515/2518 31015G25KT
Issued Valid From Valid To
Sep-25 @ 14:30 UTC
(an hour ago)
Sep-25 @ 15:00 UTC
(42 minutes ago)
Sep-26 @ 00:00 UTC
(in 8 hours)
Sep-25 @ 15:00 to Sep-26 @ 00:00
TAF EPSY 251430Z 2515/2524 31010KT CAVOK
Wind Visibility Clouds Conditions
310° at 10 knots 10,000+ meters
  • No significant clouds
Temporary Sep-25 @ 15:00 to Sep-25 @ 18:00
TEMPO 2515/2518 31015G25KT
Wind
310° at 15 knots
 Gusting to 25 knots
TAF EPSY 251430Z 2515/2524 31010KT CAVOK TEMPO 2515/2518 31015G25KT
Issued Sep-25 @ 14:30 UTC
(an hour ago)
Valid From Sep-25 @ 15:00 UTC
(42 minutes ago)
Valid To Sep-26 @ 00:00 UTC
(in 8 hours)
Sep-25 @ 15:00 - Sep-26 @ 00:00
Wind Visibility
310° at 10 knots 10,000+ meters
Clouds
  • No significant clouds
Conditions
Temporary Sep-25 @ 15:00 - Sep-25 @ 18:00
Wind
310° at 15 knots
 Gusting to 25 knots